sensor_id;sensor_type;location;lat;lon;timestamp;P1;durP1;ratioP1;P2;durP2;ratioP2
10701;SDS011;5402;50.004;8.246;2022-07-10T00:01:23;2.70;;;2.33;;
10701;SDS011;5402;50.004;8.246;2022-07-10T00:03:49;3.63;;;2.20;;
10701;SDS011;5402;50.004;8.246;2022-07-10T00:06:17;3.17;;;2.43;;
10701;SDS011;5402;50.004;8.246;2022-07-10T00:08:44;5.20;;;2.30;;
10701;SDS011;5402;50.004;8.246;2022-07-10T00:11:11;3.37;;;2.27;;
10701;SDS011;5402;50.004;8.246;2022-07-10T00:13:38;7.47;;;2.33;;
10701;SDS011;5402;50.004;8.246;2022-07-10T00:16:05;4.67;;;2.30;;
10701;SDS011;5402;50.004;8.246;2022-07-10T00:18:32;2.37;;;2.10;;
10701;SDS011;5402;50.004;8.246;2022-07-10T00:20:59;3.07;;;2.27;;
10701;SDS011;5402;50.004;8.246;2022-07-10T00:23:33;3.60;;;2.13;;
10701;SDS011;5402;50.004;8.246;2022-07-10T00:26:03;2.90;;;2.03;;
10701;SDS011;5402;50.004;8.246;2022-07-10T00:28:31;2.50;;;2.00;;
10701;SDS011;5402;50.004;8.246;2022-07-10T00:31:03;3.27;;;2.20;;
10701;SDS011;5402;50.004;8.246;2022-07-10T00:33:32;4.00;;;1.90;;
10701;SDS011;5402;50.004;8.246;2022-07-10T00:35:59;4.27;;;2.27;;
10701;SDS011;5402;50.004;8.246;2022-07-10T00:38:28;2.10;;;1.90;;
10701;SDS011;5402;50.004;8.246;2022-07-10T00:41:00;4.80;;;2.27;;
10701;SDS011;5402;50.004;8.246;2022-07-10T00:43:27;2.43;;;1.70;;
10701;SDS011;5402;50.004;8.246;2022-07-10T00:45:55;2.30;;;2.07;;
10701;SDS011;5402;50.004;8.246;2022-07-10T00:48:22;3.87;;;2.40;;
10701;SDS011;5402;50.004;8.246;2022-07-10T00:50:48;4.70;;;2.17;;
10701;SDS011;5402;50.004;8.246;2022-07-10T00:53:16;3.37;;;1.93;;
10701;SDS011;5402;50.004;8.246;2022-07-10T00:55:44;2.93;;;1.80;;
10701;SDS011;5402;50.004;8.246;2022-07-10T00:58:11;4.37;;;1.90;;
10701;SDS011;5402;50.004;8.246;2022-07-10T01:00:44;2.87;;;1.90;;
10701;SDS011;5402;50.004;8.246;2022-07-10T01:03:12;4.70;;;1.77;;
10701;SDS011;5402;50.004;8.246;2022-07-10T01:05:40;2.27;;;1.80;;
10701;SDS011;5402;50.004;8.246;2022-07-10T01:08:07;1.80;;;1.70;;
10701;SDS011;5402;50.004;8.246;2022-07-10T01:10:34;2.33;;;1.80;;
10701;SDS011;5402;50.004;8.246;2022-07-10T01:13:03;3.47;;;2.27;;
10701;SDS011;5402;50.004;8.246;2022-07-10T01:15:33;3.03;;;1.87;;
10701;SDS011;5402;50.004;8.246;2022-07-10T01:18:01;3.43;;;1.70;;
10701;SDS011;5402;50.004;8.246;2022-07-10T01:20:31;3.70;;;2.20;;
10701;SDS011;5402;50.004;8.246;2022-07-10T01:22:59;2.57;;;1.80;;
10701;SDS011;5402;50.004;8.246;2022-07-10T01:25:27;4.73;;;2.00;;
10701;SDS011;5402;50.004;8.246;2022-07-10T01:27:54;3.27;;;2.00;;
10701;SDS011;5402;50.004;8.246;2022-07-10T01:30:20;6.13;;;1.90;;
10701;SDS011;5402;50.004;8.246;2022-07-10T01:32:47;3.37;;;2.03;;
10701;SDS011;5402;50.004;8.246;2022-07-10T01:35:14;5.50;;;1.77;;
10701;SDS011;5402;50.004;8.246;2022-07-10T01:37:44;3.93;;;1.80;;
10701;SDS011;5402;50.004;8.246;2022-07-10T01:40:16;2.53;;;1.90;;
10701;SDS011;5402;50.004;8.246;2022-07-10T01:42:48;4.27;;;1.70;;
10701;SDS011;5402;50.004;8.246;2022-07-10T01:45:17;3.10;;;1.80;;
10701;SDS011;5402;50.004;8.246;2022-07-10T01:47:50;2.10;;;1.60;;
10701;SDS011;5402;50.004;8.246;2022-07-10T01:50:19;3.23;;;1.80;;
10701;SDS011;5402;50.004;8.246;2022-07-10T01:52:46;2.00;;;1.80;;
10701;SDS011;5402;50.004;8.246;2022-07-10T01:55:13;3.23;;;2.20;;
10701;SDS011;5402;50.004;8.246;2022-07-10T01:57:41;1.80;;;1.70;;
10701;SDS011;5402;50.004;8.246;2022-07-10T02:00:08;3.50;;;1.70;;
10701;SDS011;5402;50.004;8.246;2022-07-10T02:02:35;2.73;;;1.70;;
10701;SDS011;5402;50.004;8.246;2022-07-10T02:05:03;4.10;;;1.73;;
10701;SDS011;5402;50.004;8.246;2022-07-10T02:07:29;2.07;;;1.57;;
10701;SDS011;5402;50.004;8.246;2022-07-10T02:09:55;2.63;;;1.57;;
10701;SDS011;5402;50.004;8.246;2022-07-10T02:12:22;3.40;;;1.80;;
10701;SDS011;5402;50.004;8.246;2022-07-10T02:14:50;5.60;;;1.77;;
10701;SDS011;5402;50.004;8.246;2022-07-10T02:17:17;2.03;;;1.63;;
10701;SDS011;5402;50.004;8.246;2022-07-10T02:19:44;4.03;;;1.83;;
10701;SDS011;5402;50.004;8.246;2022-07-10T02:22:12;1.70;;;1.60;;
10701;SDS011;5402;50.004;8.246;2022-07-10T02:24:39;4.03;;;1.60;;
10701;SDS011;5402;50.004;8.246;2022-07-10T02:27:05;5.03;;;2.03;;
10701;SDS011;5402;50.004;8.246;2022-07-10T02:29:32;3.07;;;1.80;;
10701;SDS011;5402;50.004;8.246;2022-07-10T02:32:06;4.47;;;1.70;;
10701;SDS011;5402;50.004;8.246;2022-07-10T02:34:34;5.37;;;1.60;;
10701;SDS011;5402;50.004;8.246;2022-07-10T02:37:01;3.07;;;1.67;;
10701;SDS011;5402;50.004;8.246;2022-07-10T02:39:34;5.27;;;1.70;;
10701;SDS011;5402;50.004;8.246;2022-07-10T02:42:04;6.40;;;2.00;;
10701;SDS011;5402;50.004;8.246;2022-07-10T02:44:36;4.70;;;1.70;;
10701;SDS011;5402;50.004;8.246;2022-07-10T02:47:03;3.33;;;1.70;;
10701;SDS011;5402;50.004;8.246;2022-07-10T02:49:31;2.93;;;1.63;;
10701;SDS011;5402;50.004;8.246;2022-07-10T02:51:58;2.70;;;1.97;;
10701;SDS011;5402;50.004;8.246;2022-07-10T02:54:25;4.83;;;1.90;;
10701;SDS011;5402;50.004;8.246;2022-07-10T02:56:51;4.03;;;1.70;;
10701;SDS011;5402;50.004;8.246;2022-07-10T02:59:18;4.20;;;1.70;;
10701;SDS011;5402;50.004;8.246;2022-07-10T03:01:47;4.77;;;1.60;;
10701;SDS011;5402;50.004;8.246;2022-07-10T03:04:14;6.40;;;1.80;;
10701;SDS011;5402;50.004;8.246;2022-07-10T03:06:42;2.47;;;1.57;;
10701;SDS011;5402;50.004;8.246;2022-07-10T03:09:08;3.27;;;1.67;;
10701;SDS011;5402;50.004;8.246;2022-07-10T03:11:35;4.80;;;2.03;;
10701;SDS011;5402;50.004;8.246;2022-07-10T03:14:02;2.73;;;1.67;;
10701;SDS011;5402;50.004;8.246;2022-07-10T03:16:28;4.50;;;1.80;;
10701;SDS011;5402;50.004;8.246;2022-07-10T03:18:55;3.73;;;1.63;;
10701;SDS011;5402;50.004;8.246;2022-07-10T03:21:22;4.00;;;1.80;;
10701;SDS011;5402;50.004;8.246;2022-07-10T03:23:50;1.97;;;1.40;;
10701;SDS011;5402;50.004;8.246;2022-07-10T03:26:17;3.73;;;1.90;;
10701;SDS011;5402;50.004;8.246;2022-07-10T03:28:44;2.80;;;1.30;;
10701;SDS011;5402;50.004;8.246;2022-07-10T03:31:13;2.13;;;1.60;;
10701;SDS011;5402;50.004;8.246;2022-07-10T03:33:43;2.63;;;1.43;;
10701;SDS011;5402;50.004;8.246;2022-07-10T03:36:11;2.37;;;1.30;;
10701;SDS011;5402;50.004;8.246;2022-07-10T03:38:38;3.03;;;1.50;;
10701;SDS011;5402;50.004;8.246;2022-07-10T03:41:11;3.93;;;1.40;;
10701;SDS011;5402;50.004;8.246;2022-07-10T03:43:39;2.97;;;1.40;;
10701;SDS011;5402;50.004;8.246;2022-07-10T03:46:05;2.37;;;1.50;;
10701;SDS011;5402;50.004;8.246;2022-07-10T03:48:32;4.20;;;1.47;;
10701;SDS011;5402;50.004;8.246;2022-07-10T03:50:59;3.13;;;1.50;;
10701;SDS011;5402;50.004;8.246;2022-07-10T03:53:32;1.40;;;1.30;;
10701;SDS011;5402;50.004;8.246;2022-07-10T03:55:59;3.07;;;1.60;;
10701;SDS011;5402;50.004;8.246;2022-07-10T03:58:27;1.50;;;1.40;;
10701;SDS011;5402;50.004;8.246;2022-07-10T04:00:53;2.27;;;1.50;;
10701;SDS011;5402;50.004;8.246;2022-07-10T04:03:20;6.67;;;1.70;;
10701;SDS011;5402;50.004;8.246;2022-07-10T04:05:46;3.07;;;1.50;;
10701;SDS011;5402;50.004;8.246;2022-07-10T04:08:15;3.93;;;1.93;;
10701;SDS011;5402;50.004;8.246;2022-07-10T04:10:44;2.67;;;1.77;;
10701;SDS011;5402;50.004;8.246;2022-07-10T04:13:11;3.60;;;1.50;;
10701;SDS011;5402;50.004;8.246;2022-07-10T04:15:39;3.77;;;1.60;;
10701;SDS011;5402;50.004;8.246;2022-07-10T04:18:05;2.73;;;1.53;;
10701;SDS011;5402;50.004;8.246;2022-07-10T04:20:32;3.97;;;1.80;;
10701;SDS011;5402;50.004;8.246;2022-07-10T04:22:59;6.87;;;2.07;;
10701;SDS011;5402;50.004;8.246;2022-07-10T04:25:28;2.50;;;1.30;;
10701;SDS011;5402;50.004;8.246;2022-07-10T04:27:55;3.40;;;1.90;;
10701;SDS011;5402;50.004;8.246;2022-07-10T04:30:21;5.50;;;1.47;;
10701;SDS011;5402;50.004;8.246;2022-07-10T04:32:50;3.27;;;2.07;;
10701;SDS011;5402;50.004;8.246;2022-07-10T04:35:16;2.67;;;1.57;;
10701;SDS011;5402;50.004;8.246;2022-07-10T04:37:43;2.83;;;1.60;;
10701;SDS011;5402;50.004;8.246;2022-07-10T04:40:12;2.40;;;1.30;;
10701;SDS011;5402;50.004;8.246;2022-07-10T04:42:39;3.30;;;1.40;;
10701;SDS011;5402;50.004;8.246;2022-07-10T04:45:06;6.03;;;1.70;;
10701;SDS011;5402;50.004;8.246;2022-07-10T04:47:33;1.83;;;1.37;;
10701;SDS011;5402;50.004;8.246;2022-07-10T04:50:01;4.00;;;1.60;;
10701;SDS011;5402;50.004;8.246;2022-07-10T04:52:30;1.47;;;1.20;;
10701;SDS011;5402;50.004;8.246;2022-07-10T04:54:57;4.90;;;1.40;;
10701;SDS011;5402;50.004;8.246;2022-07-10T04:57:24;5.10;;;1.40;;
10701;SDS011;5402;50.004;8.246;2022-07-10T04:59:50;3.07;;;1.40;;
10701;SDS011;5402;50.004;8.246;2022-07-10T05:02:18;2.17;;;1.43;;
10701;SDS011;5402;50.004;8.246;2022-07-10T05:04:46;1.37;;;1.27;;
10701;SDS011;5402;50.004;8.246;2022-07-10T05:07:15;3.03;;;1.60;;
10701;SDS011;5402;50.004;8.246;2022-07-10T05:09:41;1.90;;;1.30;;
10701;SDS011;5402;50.004;8.246;2022-07-10T05:12:08;1.83;;;1.40;;
10701;SDS011;5402;50.004;8.246;2022-07-10T05:14:35;2.00;;;1.13;;
10701;SDS011;5402;50.004;8.246;2022-07-10T05:17:02;7.93;;;2.00;;
10701;SDS011;5402;50.004;8.246;2022-07-10T05:19:32;3.07;;;1.47;;
10701;SDS011;5402;50.004;8.246;2022-07-10T05:22:05;6.10;;;1.70;;
10701;SDS011;5402;50.004;8.246;2022-07-10T05:24:33;2.70;;;1.43;;
10701;SDS011;5402;50.004;8.246;2022-07-10T05:27:02;2.63;;;1.23;;
10701;SDS011;5402;50.004;8.246;2022-07-10T05:29:30;4.03;;;1.50;;
10701;SDS011;5402;50.004;8.246;2022-07-10T05:32:01;3.03;;;1.70;;
10701;SDS011;5402;50.004;8.246;2022-07-10T05:34:30;3.10;;;1.50;;
10701;SDS011;5402;50.004;8.246;2022-07-10T05:36:56;2.40;;;1.30;;
10701;SDS011;5402;50.004;8.246;2022-07-10T05:39:23;2.37;;;1.33;;
10701;SDS011;5402;50.004;8.246;2022-07-10T05:41:52;2.80;;;1.20;;
10701;SDS011;5402;50.004;8.246;2022-07-10T05:44:21;3.10;;;1.30;;
10701;SDS011;5402;50.004;8.246;2022-07-10T05:46:48;3.80;;;1.50;;
10701;SDS011;5402;50.004;8.246;2022-07-10T05:49:15;3.57;;;1.60;;
10701;SDS011;5402;50.004;8.246;2022-07-10T05:51:41;3.70;;;1.47;;
10701;SDS011;5402;50.004;8.246;2022-07-10T05:54:09;3.53;;;1.47;;
10701;SDS011;5402;50.004;8.246;2022-07-10T05:56:35;1.73;;;1.00;;
10701;SDS011;5402;50.004;8.246;2022-07-10T05:59:03;4.80;;;1.20;;
10701;SDS011;5402;50.004;8.246;2022-07-10T06:01:30;4.40;;;1.30;;
10701;SDS011;5402;50.004;8.246;2022-07-10T06:03:57;2.13;;;1.20;;
10701;SDS011;5402;50.004;8.246;2022-07-10T06:06:23;1.07;;;0.97;;
10701;SDS011;5402;50.004;8.246;2022-07-10T06:08:50;3.03;;;1.43;;
10701;SDS011;5402;50.004;8.246;2022-07-10T06:11:17;2.33;;;1.10;;
10701;SDS011;5402;50.004;8.246;2022-07-10T06:13:44;1.90;;;1.00;;
10701;SDS011;5402;50.004;8.246;2022-07-10T06:16:12;3.80;;;1.10;;
10701;SDS011;5402;50.004;8.246;2022-07-10T06:18:38;3.57;;;1.27;;
10701;SDS011;5402;50.004;8.246;2022-07-10T06:21:05;3.03;;;1.37;;
10701;SDS011;5402;50.004;8.246;2022-07-10T06:23:33;1.30;;;1.07;;
10701;SDS011;5402;50.004;8.246;2022-07-10T06:26:00;2.73;;;1.10;;
10701;SDS011;5402;50.004;8.246;2022-07-10T06:28:33;2.73;;;0.97;;
10701;SDS011;5402;50.004;8.246;2022-07-10T06:31:00;1.60;;;1.03;;
10701;SDS011;5402;50.004;8.246;2022-07-10T06:33:28;3.03;;;1.23;;
10701;SDS011;5402;50.004;8.246;2022-07-10T06:35:55;1.93;;;1.37;;
10701;SDS011;5402;50.004;8.246;2022-07-10T06:38:21;3.87;;;1.10;;
10701;SDS011;5402;50.004;8.246;2022-07-10T06:40:48;7.97;;;1.40;;
10701;SDS011;5402;50.004;8.246;2022-07-10T06:43:17;1.43;;;0.97;;
10701;SDS011;5402;50.004;8.246;2022-07-10T06:45:44;1.57;;;0.90;;
10701;SDS011;5402;50.004;8.246;2022-07-10T06:48:12;4.20;;;1.00;;
10701;SDS011;5402;50.004;8.246;2022-07-10T06:50:39;1.77;;;1.10;;
10701;SDS011;5402;50.004;8.246;2022-07-10T06:53:07;3.03;;;0.93;;
10701;SDS011;5402;50.004;8.246;2022-07-10T06:55:33;2.87;;;1.20;;
10701;SDS011;5402;50.004;8.246;2022-07-10T06:58:01;3.00;;;0.90;;
10701;SDS011;5402;50.004;8.246;2022-07-10T07:00:28;2.03;;;0.70;;
10701;SDS011;5402;50.004;8.246;2022-07-10T07:02:54;2.90;;;1.17;;
10701;SDS011;5402;50.004;8.246;2022-07-10T07:05:21;2.40;;;0.80;;
10701;SDS011;5402;50.004;8.246;2022-07-10T07:07:49;3.97;;;1.20;;
10701;SDS011;5402;50.004;8.246;2022-07-10T07:10:16;1.10;;;0.90;;
10701;SDS011;5402;50.004;8.246;2022-07-10T07:12:43;3.67;;;1.17;;
10701;SDS011;5402;50.004;8.246;2022-07-10T07:15:10;1.80;;;0.90;;
10701;SDS011;5402;50.004;8.246;2022-07-10T07:17:40;2.20;;;0.90;;
10701;SDS011;5402;50.004;8.246;2022-07-10T07:20:22;1.33;;;0.90;;
10701;SDS011;5402;50.004;8.246;2022-07-10T07:23:09;2.43;;;0.90;;
10701;SDS011;5402;50.004;8.246;2022-07-10T07:25:35;1.40;;;0.90;;
10701;SDS011;5402;50.004;8.246;2022-07-10T07:28:03;4.47;;;1.03;;
10701;SDS011;5402;50.004;8.246;2022-07-10T07:30:30;3.40;;;1.33;;
10701;SDS011;5402;50.004;8.246;2022-07-10T07:32:58;4.97;;;0.90;;
10701;SDS011;5402;50.004;8.246;2022-07-10T07:35:25;2.27;;;0.87;;
10701;SDS011;5402;50.004;8.246;2022-07-10T07:37:51;1.97;;;0.80;;
10701;SDS011;5402;50.004;8.246;2022-07-10T07:40:20;2.00;;;0.70;;
10701;SDS011;5402;50.004;8.246;2022-07-10T07:42:48;1.33;;;0.80;;
10701;SDS011;5402;50.004;8.246;2022-07-10T07:45:16;1.93;;;0.70;;
10701;SDS011;5402;50.004;8.246;2022-07-10T07:47:43;3.57;;;1.00;;
10701;SDS011;5402;50.004;8.246;2022-07-10T07:50:11;3.87;;;0.73;;
10701;SDS011;5402;50.004;8.246;2022-07-10T07:52:38;3.20;;;1.03;;
10701;SDS011;5402;50.004;8.246;2022-07-10T07:55:05;3.10;;;1.03;;
10701;SDS011;5402;50.004;8.246;2022-07-10T07:57:34;1.50;;;0.83;;
10701;SDS011;5402;50.004;8.246;2022-07-10T08:00:01;4.47;;;0.90;;
10701;SDS011;5402;50.004;8.246;2022-07-10T08:02:28;3.07;;;1.00;;
10701;SDS011;5402;50.004;8.246;2022-07-10T08:04:54;3.63;;;0.80;;
10701;SDS011;5402;50.004;8.246;2022-07-10T08:07:21;3.00;;;1.03;;
10701;SDS011;5402;50.004;8.246;2022-07-10T08:09:48;2.00;;;0.70;;
10701;SDS011;5402;50.004;8.246;2022-07-10T08:12:15;3.67;;;0.93;;
10701;SDS011;5402;50.004;8.246;2022-07-10T08:14:43;3.03;;;0.80;;
10701;SDS011;5402;50.004;8.246;2022-07-10T08:17:10;1.73;;;1.00;;
10701;SDS011;5402;50.004;8.246;2022-07-10T08:19:37;1.97;;;0.90;;
10701;SDS011;5402;50.004;8.246;2022-07-10T08:22:04;2.83;;;1.10;;
10701;SDS011;5402;50.004;8.246;2022-07-10T08:24:31;1.77;;;1.13;;
10701;SDS011;5402;50.004;8.246;2022-07-10T08:26:57;3.80;;;1.10;;
10701;SDS011;5402;50.004;8.246;2022-07-10T08:29:24;2.90;;;0.80;;
10701;SDS011;5402;50.004;8.246;2022-07-10T08:31:52;1.10;;;1.00;;
10701;SDS011;5402;50.004;8.246;2022-07-10T08:34:19;1.87;;;0.90;;
10701;SDS011;5402;50.004;8.246;2022-07-10T08:36:45;2.70;;;1.17;;
10701;SDS011;5402;50.004;8.246;2022-07-10T08:39:12;2.50;;;1.20;;
10701;SDS011;5402;50.004;8.246;2022-07-10T08:41:40;1.80;;;1.03;;
10701;SDS011;5402;50.004;8.246;2022-07-10T08:44:10;3.73;;;1.17;;
10701;SDS011;5402;50.004;8.246;2022-07-10T08:46:37;3.90;;;1.10;;
10701;SDS011;5402;50.004;8.246;2022-07-10T08:49:08;2.03;;;1.00;;
10701;SDS011;5402;50.004;8.246;2022-07-10T08:51:36;1.20;;;1.10;;
10701;SDS011;5402;50.004;8.246;2022-07-10T08:54:06;3.83;;;1.13;;
10701;SDS011;5402;50.004;8.246;2022-07-10T08:56:34;2.17;;;0.90;;
10701;SDS011;5402;50.004;8.246;2022-07-10T08:59:03;3.70;;;1.30;;
10701;SDS011;5402;50.004;8.246;2022-07-10T09:01:30;3.70;;;1.23;;
10701;SDS011;5402;50.004;8.246;2022-07-10T09:03:58;3.37;;;1.17;;
10701;SDS011;5402;50.004;8.246;2022-07-10T09:06:26;3.37;;;1.17;;
10701;SDS011;5402;50.004;8.246;2022-07-10T09:08:57;2.60;;;1.20;;
10701;SDS011;5402;50.004;8.246;2022-07-10T09:11:25;3.03;;;1.20;;
10701;SDS011;5402;50.004;8.246;2022-07-10T09:13:54;1.83;;;1.20;;
10701;SDS011;5402;50.004;8.246;2022-07-10T09:16:23;4.07;;;1.30;;
10701;SDS011;5402;50.004;8.246;2022-07-10T09:18:50;4.17;;;1.30;;
10701;SDS011;5402;50.004;8.246;2022-07-10T09:21:17;1.80;;;1.13;;
10701;SDS011;5402;50.004;8.246;2022-07-10T09:23:45;4.10;;;1.20;;
10701;SDS011;5402;50.004;8.246;2022-07-10T09:26:12;3.50;;;1.10;;
10701;SDS011;5402;50.004;8.246;2022-07-10T09:28:39;3.53;;;1.20;;
10701;SDS011;5402;50.004;8.246;2022-07-10T09:31:05;2.17;;;1.20;;
10701;SDS011;5402;50.004;8.246;2022-07-10T09:33:32;3.73;;;1.33;;
10701;SDS011;5402;50.004;8.246;2022-07-10T09:36:02;5.70;;;1.30;;
10701;SDS011;5402;50.004;8.246;2022-07-10T09:38:47;1.80;;;1.10;;
10701;SDS011;5402;50.004;8.246;2022-07-10T09:41:15;1.53;;;1.00;;
10701;SDS011;5402;50.004;8.246;2022-07-10T09:43:43;2.53;;;1.20;;
10701;SDS011;5402;50.004;8.246;2022-07-10T09:46:11;2.37;;;1.20;;
10701;SDS011;5402;50.004;8.246;2022-07-10T09:48:38;3.00;;;1.10;;
10701;SDS011;5402;50.004;8.246;2022-07-10T09:51:06;1.90;;;1.20;;
10701;SDS011;5402;50.004;8.246;2022-07-10T09:53:35;2.50;;;1.30;;
10701;SDS011;5402;50.004;8.246;2022-07-10T09:56:07;3.63;;;1.20;;
10701;SDS011;5402;50.004;8.246;2022-07-10T09:58:35;1.90;;;1.33;;
10701;SDS011;5402;50.004;8.246;2022-07-10T10:01:02;2.57;;;1.27;;
10701;SDS011;5402;50.004;8.246;2022-07-10T10:03:33;2.03;;;1.30;;
10701;SDS011;5402;50.004;8.246;2022-07-10T10:06:02;2.50;;;1.03;;
10701;SDS011;5402;50.004;8.246;2022-07-10T10:08:31;3.07;;;1.40;;
10701;SDS011;5402;50.004;8.246;2022-07-10T10:11:04;1.57;;;1.40;;
10701;SDS011;5402;50.004;8.246;2022-07-10T10:13:34;5.87;;;1.73;;
10701;SDS011;5402;50.004;8.246;2022-07-10T10:16:02;2.60;;;1.10;;
10701;SDS011;5402;50.004;8.246;2022-07-10T10:18:29;3.23;;;1.33;;
10701;SDS011;5402;50.004;8.246;2022-07-10T10:20:56;3.67;;;1.30;;
10701;SDS011;5402;50.004;8.246;2022-07-10T10:23:22;3.73;;;1.40;;
10701;SDS011;5402;50.004;8.246;2022-07-10T10:25:51;2.00;;;1.30;;
10701;SDS011;5402;50.004;8.246;2022-07-10T10:28:19;2.10;;;1.23;;
10701;SDS011;5402;50.004;8.246;2022-07-10T10:30:50;2.40;;;1.10;;
10701;SDS011;5402;50.004;8.246;2022-07-10T10:36:12;1.73;;;1.07;;
10701;SDS011;5402;50.004;8.246;2022-07-10T10:39:01;4.57;;;1.20;;
10701;SDS011;5402;50.004;8.246;2022-07-10T10:41:36;2.87;;;1.17;;
10701;SDS011;5402;50.004;8.246;2022-07-10T10:44:19;2.33;;;1.30;;
10701;SDS011;5402;50.004;8.246;2022-07-10T10:47:06;3.67;;;1.30;;
10701;SDS011;5402;50.004;8.246;2022-07-10T10:49:47;3.73;;;1.30;;
10701;SDS011;5402;50.004;8.246;2022-07-10T10:52:15;1.88;;;1.05;;
10701;SDS011;5402;50.004;8.246;2022-07-10T10:55:02;2.05;;;1.30;;
10701;SDS011;5402;50.004;8.246;2022-07-10T10:57:40;1.80;;;1.35;;
10701;SDS011;5402;50.004;8.246;2022-07-10T11:00:13;1.58;;;1.30;;
10701;SDS011;5402;50.004;8.246;2022-07-10T11:03:09;3.38;;;1.52;;
10701;SDS011;5402;50.004;8.246;2022-07-10T11:05:42;4.22;;;1.35;;
10701;SDS011;5402;50.004;8.246;2022-07-10T11:08:10;2.17;;;1.40;;
10701;SDS011;5402;50.004;8.246;2022-07-10T11:10:37;2.00;;;1.20;;
10701;SDS011;5402;50.004;8.246;2022-07-10T11:13:05;1.67;;;1.00;;
10701;SDS011;5402;50.004;8.246;2022-07-10T11:15:34;1.20;;;1.10;;
10701;SDS011;5402;50.004;8.246;2022-07-10T11:18:04;1.38;;;1.00;;
10701;SDS011;5402;50.004;8.246;2022-07-10T11:20:33;2.08;;;1.00;;
10701;SDS011;5402;50.004;8.246;2022-07-10T11:23:06;2.53;;;1.38;;
10701;SDS011;5402;50.004;8.246;2022-07-10T11:25:45;3.15;;;1.23;;
10701;SDS011;5402;50.004;8.246;2022-07-10T11:28:27;2.72;;;1.30;;
10701;SDS011;5402;50.004;8.246;2022-07-10T11:30:59;3.88;;;1.10;;
10701;SDS011;5402;50.004;8.246;2022-07-10T11:33:26;1.48;;;1.15;;
10701;SDS011;5402;50.004;8.246;2022-07-10T11:35:54;1.77;;;1.10;;
10701;SDS011;5402;50.004;8.246;2022-07-10T11:38:21;3.10;;;1.23;;
10701;SDS011;5402;50.004;8.246;2022-07-10T11:40:49;2.03;;;1.30;;
10701;SDS011;5402;50.004;8.246;2022-07-10T11:43:17;1.95;;;1.20;;
10701;SDS011;5402;50.004;8.246;2022-07-10T11:45:47;1.92;;;1.33;;
10701;SDS011;5402;50.004;8.246;2022-07-10T11:48:17;2.65;;;1.20;;
10701;SDS011;5402;50.004;8.246;2022-07-10T11:50:44;2.72;;;1.30;;
10701;SDS011;5402;50.004;8.246;2022-07-10T11:53:12;1.05;;;0.95;;
10701;SDS011;5402;50.004;8.246;2022-07-10T11:55:39;4.80;;;1.48;;
10701;SDS011;5402;50.004;8.246;2022-07-10T11:58:13;2.42;;;1.10;;
10701;SDS011;5402;50.004;8.246;2022-07-10T12:00:40;2.67;;;1.20;;
10701;SDS011;5402;50.004;8.246;2022-07-10T12:03:17;1.38;;;1.10;;
10701;SDS011;5402;50.004;8.246;2022-07-10T12:05:46;3.80;;;1.23;;
10701;SDS011;5402;50.004;8.246;2022-07-10T12:08:14;1.17;;;1.00;;
10701;SDS011;5402;50.004;8.246;2022-07-10T12:10:41;2.70;;;1.00;;
10701;SDS011;5402;50.004;8.246;2022-07-10T12:13:09;4.22;;;1.20;;
10701;SDS011;5402;50.004;8.246;2022-07-10T12:15:37;1.25;;;0.93;;
10701;SDS011;5402;50.004;8.246;2022-07-10T12:18:06;2.78;;;1.30;;
10701;SDS011;5402;50.004;8.246;2022-07-10T12:20:35;3.17;;;1.02;;
10701;SDS011;5402;50.004;8.246;2022-07-10T12:23:03;3.25;;;1.17;;
10701;SDS011;5402;50.004;8.246;2022-07-10T12:25:31;1.85;;;1.08;;
10701;SDS011;5402;50.004;8.246;2022-07-10T12:27:59;1.67;;;0.90;;
10701;SDS011;5402;50.004;8.246;2022-07-10T12:30:36;1.50;;;0.77;;
10701;SDS011;5402;50.004;8.246;2022-07-10T12:33:10;3.03;;;1.25;;
10701;SDS011;5402;50.004;8.246;2022-07-10T12:35:45;2.65;;;1.00;;
10701;SDS011;5402;50.004;8.246;2022-07-10T12:38:19;1.00;;;0.80;;
10701;SDS011;5402;50.004;8.246;2022-07-10T12:40:48;1.70;;;1.08;;
10701;SDS011;5402;50.004;8.246;2022-07-10T12:43:27;2.63;;;1.05;;
10701;SDS011;5402;50.004;8.246;2022-07-10T12:46:13;1.95;;;0.95;;
10701;SDS011;5402;50.004;8.246;2022-07-10T12:48:41;1.13;;;0.90;;
10701;SDS011;5402;50.004;8.246;2022-07-10T12:51:22;1.48;;;0.70;;
10701;SDS011;5402;50.004;8.246;2022-07-10T12:53:57;1.65;;;0.90;;
10701;SDS011;5402;50.004;8.246;2022-07-10T12:56:32;1.38;;;0.63;;
10701;SDS011;5402;50.004;8.246;2022-07-10T12:59:00;3.33;;;0.80;;
10701;SDS011;5402;50.004;8.246;2022-07-10T13:01:28;1.92;;;0.93;;
10701;SDS011;5402;50.004;8.246;2022-07-10T13:04:05;2.55;;;1.00;;
10701;SDS011;5402;50.004;8.246;2022-07-10T13:06:34;0.77;;;0.70;;
10701;SDS011;5402;50.004;8.246;2022-07-10T13:09:02;1.33;;;0.80;;
10701;SDS011;5402;50.004;8.246;2022-07-10T13:11:29;2.70;;;1.10;;
10701;SDS011;5402;50.004;8.246;2022-07-10T13:13:57;1.52;;;0.88;;
10701;SDS011;5402;50.004;8.246;2022-07-10T13:16:24;1.10;;;0.77;;
10701;SDS011;5402;50.004;8.246;2022-07-10T13:18:50;0.80;;;0.70;;
10701;SDS011;5402;50.004;8.246;2022-07-10T13:21:19;2.40;;;1.08;;
10701;SDS011;5402;50.004;8.246;2022-07-10T13:23:46;1.77;;;1.10;;
10701;SDS011;5402;50.004;8.246;2022-07-10T13:26:13;2.15;;;0.80;;
10701;SDS011;5402;50.004;8.246;2022-07-10T13:28:40;2.38;;;1.10;;
10701;SDS011;5402;50.004;8.246;2022-07-10T13:31:08;2.10;;;0.98;;
10701;SDS011;5402;50.004;8.246;2022-07-10T13:33:35;1.08;;;0.85;;
10701;SDS011;5402;50.004;8.246;2022-07-10T13:36:02;2.15;;;1.00;;
10701;SDS011;5402;50.004;8.246;2022-07-10T13:38:30;0.82;;;0.80;;
10701;SDS011;5402;50.004;8.246;2022-07-10T13:40:57;1.80;;;0.90;;
10701;SDS011;5402;50.004;8.246;2022-07-10T13:43:24;1.23;;;0.98;;
10701;SDS011;5402;50.004;8.246;2022-07-10T13:45:56;1.88;;;1.05;;
10701;SDS011;5402;50.004;8.246;2022-07-10T13:48:24;0.90;;;0.90;;
10701;SDS011;5402;50.004;8.246;2022-07-10T13:50:52;2.08;;;1.20;;
10701;SDS011;5402;50.004;8.246;2022-07-10T13:53:19;1.52;;;0.93;;
10701;SDS011;5402;50.004;8.246;2022-07-10T13:55:45;2.25;;;0.90;;
10701;SDS011;5402;50.004;8.246;2022-07-10T13:58:13;1.17;;;1.05;;
10701;SDS011;5402;50.004;8.246;2022-07-10T14:00:40;2.35;;;1.20;;
10701;SDS011;5402;50.004;8.246;2022-07-10T14:03:07;1.20;;;0.98;;
10701;SDS011;5402;50.004;8.246;2022-07-10T14:05:36;1.05;;;0.98;;
10701;SDS011;5402;50.004;8.246;2022-07-10T14:08:03;2.72;;;1.27;;
10701;SDS011;5402;50.004;8.246;2022-07-10T14:10:30;2.42;;;1.27;;
10701;SDS011;5402;50.004;8.246;2022-07-10T14:12:57;2.65;;;1.35;;
10701;SDS011;5402;50.004;8.246;2022-07-10T14:15:24;1.55;;;1.00;;
10701;SDS011;5402;50.004;8.246;2022-07-10T14:17:51;3.60;;;1.23;;
10701;SDS011;5402;50.004;8.246;2022-07-10T14:20:20;0.90;;;0.90;;
10701;SDS011;5402;50.004;8.246;2022-07-10T14:22:48;1.83;;;1.10;;
10701;SDS011;5402;50.004;8.246;2022-07-10T14:25:14;1.15;;;1.02;;
10701;SDS011;5402;50.004;8.246;2022-07-10T14:27:41;1.25;;;1.00;;
10701;SDS011;5402;50.004;8.246;2022-07-10T14:30:08;2.28;;;0.80;;
10701;SDS011;5402;50.004;8.246;2022-07-10T14:32:35;1.17;;;1.05;;
10701;SDS011;5402;50.004;8.246;2022-07-10T14:35:02;2.47;;;1.00;;
10701;SDS011;5402;50.004;8.246;2022-07-10T14:37:29;1.00;;;0.95;;
10701;SDS011;5402;50.004;8.246;2022-07-10T14:39:57;0.90;;;0.90;;
10701;SDS011;5402;50.004;8.246;2022-07-10T14:42:24;2.53;;;1.10;;
10701;SDS011;5402;50.004;8.246;2022-07-10T14:44:51;0.68;;;0.68;;
10701;SDS011;5402;50.004;8.246;2022-07-10T14:47:17;0.90;;;0.90;;
10701;SDS011;5402;50.004;8.246;2022-07-10T14:49:44;2.28;;;0.90;;
10701;SDS011;5402;50.004;8.246;2022-07-10T14:52:11;1.33;;;1.13;;
10701;SDS011;5402;50.004;8.246;2022-07-10T14:54:41;1.63;;;0.98;;
10701;SDS011;5402;50.004;8.246;2022-07-10T14:57:09;2.88;;;1.13;;
10701;SDS011;5402;50.004;8.246;2022-07-10T14:59:38;0.82;;;0.82;;
10701;SDS011;5402;50.004;8.246;2022-07-10T15:02:05;1.48;;;1.05;;
10701;SDS011;5402;50.004;8.246;2022-07-10T15:04:32;0.98;;;0.88;;
10701;SDS011;5402;50.004;8.246;2022-07-10T15:06:58;0.80;;;0.80;;
10701;SDS011;5402;50.004;8.246;2022-07-10T15:09:25;0.82;;;0.82;;
10701;SDS011;5402;50.004;8.246;2022-07-10T15:11:52;1.00;;;1.00;;